createdAt,value
2019-06-23T00:01:38.517Z,18.20
2019-06-23T00:04:07.669Z,18.30
2019-06-23T00:06:36.795Z,18.30
2019-06-23T00:09:06.535Z,18.20
2019-06-23T00:11:35.684Z,18.20
2019-06-23T00:14:04.845Z,18.20
2019-06-23T00:16:34.073Z,18.20
2019-06-23T00:19:03.242Z,18.30
2019-06-23T00:21:32.381Z,18.30
2019-06-23T00:24:01.540Z,18.30
2019-06-23T00:26:30.665Z,18.20
2019-06-23T00:28:59.860Z,18.30
2019-06-23T00:31:57.461Z,18.20
2019-06-23T00:34:26.691Z,18.30
2019-06-23T00:36:55.846Z,18.30
2019-06-23T00:39:25.039Z,18.30
2019-06-23T00:41:54.190Z,18.30
2019-06-23T00:44:23.380Z,18.20
2019-06-23T00:46:52.554Z,18.30
2019-06-23T00:49:21.764Z,18.30
2019-06-23T00:51:51.131Z,18.30
2019-06-23T00:54:20.276Z,18.20
2019-06-23T00:56:49.729Z,18.20
2019-06-23T00:59:18.884Z,18.20
2019-06-23T01:01:57.990Z,18.20
2019-06-23T01:04:27.609Z,18.20
2019-06-23T01:06:56.756Z,18.30
2019-06-23T01:09:25.907Z,18.30
2019-06-23T01:11:55.187Z,18.20
2019-06-23T01:14:26.228Z,18.30
2019-06-23T01:16:57.433Z,18.20
2019-06-23T01:19:28.635Z,18.30
2019-06-23T01:21:58.019Z,18.30
2019-06-23T01:24:27.219Z,18.30
2019-06-23T01:26:56.481Z,18.30
2019-06-23T01:29:25.614Z,18.30
2019-06-23T01:31:54.833Z,18.30
2019-06-23T01:34:25.221Z,18.30
2019-06-23T01:36:54.662Z,18.30
2019-06-23T01:39:23.982Z,18.30
2019-06-23T01:41:53.142Z,18.30
2019-06-23T01:44:22.291Z,18.20
2019-06-23T01:46:51.445Z,18.30
2019-06-23T01:49:20.578Z,18.30
2019-06-23T01:51:49.821Z,18.20
2019-06-23T01:54:19.083Z,18.20
2019-06-23T01:56:48.301Z,18.20
2019-06-23T01:59:17.453Z,18.30
2019-06-23T02:01:46.556Z,18.30
2019-06-23T02:04:15.764Z,18.30
2019-06-23T02:06:44.939Z,18.30
2019-06-23T02:09:14.061Z,18.30
2019-06-23T02:11:43.242Z,18.30
2019-06-23T02:14:12.431Z,18.30
2019-06-23T02:16:41.851Z,18.20
2019-06-23T02:19:11.002Z,18.30
2019-06-23T02:21:59.225Z,18.30
2019-06-23T02:24:28.688Z,18.30
2019-06-23T02:26:59.310Z,18.30
2019-06-23T02:29:28.530Z,18.30
2019-06-23T02:31:57.717Z,18.30
2019-06-23T02:34:26.933Z,18.30
2019-06-23T02:36:56.206Z,18.30
2019-06-23T02:39:25.370Z,18.20
2019-06-23T02:41:54.608Z,18.20
2019-06-23T02:44:23.723Z,18.20
2019-06-23T02:46:58.985Z,18.30
2019-06-23T02:49:30.090Z,18.20
2019-06-23T02:52:05.165Z,18.20
2019-06-23T02:54:43.370Z,18.20
2019-06-23T02:57:19.994Z,18.20
2019-06-23T02:59:49.118Z,18.20
2019-06-23T03:02:18.442Z,18.20
2019-06-23T03:04:47.667Z,18.20
2019-06-23T03:07:16.820Z,18.20
2019-06-23T03:09:46.028Z,18.20
2019-06-23T03:12:15.183Z,18.30
2019-06-23T03:14:44.429Z,18.30
2019-06-23T03:17:13.568Z,18.20
2019-06-23T03:19:42.713Z,18.20
2019-06-23T03:22:11.840Z,18.20
2019-06-23T03:24:41.016Z,18.10
2019-06-23T03:27:10.150Z,18.20
2019-06-23T03:29:39.428Z,18.20
2019-06-23T03:32:08.543Z,18.20
2019-06-23T03:34:37.690Z,18.20
2019-06-23T03:37:07.457Z,18.20
2019-06-23T03:39:37.645Z,18.20
2019-06-23T03:42:06.950Z,18.20
2019-06-23T03:44:36.131Z,18.20
2019-06-23T03:47:05.283Z,18.20
2019-06-23T03:49:34.443Z,18.30
2019-06-23T03:52:03.666Z,18.30
2019-06-23T03:54:32.812Z,18.30
2019-06-23T03:57:02.019Z,18.40
2019-06-23T03:59:31.238Z,18.30
2019-06-23T04:02:00.391Z,18.30
2019-06-23T04:04:29.566Z,18.30
2019-06-23T04:06:58.688Z,18.30
2019-06-23T04:09:27.896Z,18.20
2019-06-23T04:11:57.092Z,18.20
2019-06-23T04:14:26.260Z,18.20
2019-06-23T04:16:55.444Z,18.20
2019-06-23T04:19:24.715Z,18.20
2019-06-23T04:21:54.049Z,18.20
2019-06-23T04:24:23.320Z,18.20
2019-06-23T04:26:52.445Z,18.20
2019-06-23T04:29:21.582Z,18.20
2019-06-23T04:31:50.804Z,18.20
2019-06-23T04:34:20.041Z,18.30
2019-06-23T04:36:49.200Z,18.30
2019-06-23T04:39:18.336Z,18.30
2019-06-23T04:41:47.496Z,18.20
2019-06-23T04:44:16.661Z,18.20
2019-06-23T04:46:45.887Z,18.30
2019-06-23T04:49:15.137Z,18.30
2019-06-23T04:51:44.335Z,18.30
2019-06-23T04:54:13.995Z,18.30
2019-06-23T04:56:43.180Z,18.40
2019-06-23T04:59:12.363Z,18.50
2019-06-23T05:01:41.513Z,18.50
2019-06-23T05:04:10.925Z,18.50
2019-06-23T05:06:40.281Z,18.60
2019-06-23T05:09:09.492Z,18.70
2019-06-23T05:11:38.657Z,18.70
2019-06-23T05:14:07.785Z,18.80
2019-06-23T05:16:36.962Z,18.80
2019-06-23T05:19:06.105Z,18.80
2019-06-23T05:21:35.356Z,18.80
2019-06-23T05:24:04.529Z,19.00
2019-06-23T05:26:33.679Z,19.00
2019-06-23T05:29:02.864Z,19.10
2019-06-23T05:31:32.173Z,19.20
2019-06-23T05:34:01.417Z,19.30
2019-06-23T05:36:39.946Z,19.30
2019-06-23T05:39:01.630Z,19.30
2019-06-23T05:41:30.782Z,19.40
2019-06-23T05:43:59.973Z,19.50
2019-06-23T05:46:29.177Z,19.60
2019-06-23T05:48:58.296Z,19.70
2019-06-23T05:51:27.473Z,19.80
2019-06-23T05:53:56.698Z,19.80
2019-06-23T05:56:25.988Z,19.90
2019-06-23T05:58:55.238Z,20.00
2019-06-23T06:01:24.365Z,20.30
2019-06-23T06:03:53.509Z,20.40
2019-06-23T06:06:22.623Z,20.60
2019-06-23T06:08:51.924Z,20.80
2019-06-23T06:11:21.062Z,21.00
2019-06-23T06:13:50.184Z,21.10
2019-06-23T06:16:19.325Z,21.30
2019-06-23T06:18:48.502Z,21.50
2019-06-23T06:21:17.652Z,21.40
2019-06-23T06:23:46.889Z,21.60
2019-06-23T06:26:16.032Z,21.70
2019-06-23T06:28:45.270Z,21.70
2019-06-23T06:31:14.423Z,21.60
2019-06-23T06:33:43.690Z,21.70
2019-06-23T06:36:12.865Z,21.70
2019-06-23T06:38:42.072Z,22.00
2019-06-23T06:41:11.240Z,22.30
2019-06-23T06:43:40.350Z,22.50
2019-06-23T06:46:09.596Z,22.50
2019-06-23T06:48:38.713Z,22.60
2019-06-23T06:51:07.984Z,22.60
2019-06-23T06:53:37.128Z,22.80
2019-06-23T06:56:06.343Z,23.10
2019-06-23T06:58:35.461Z,23.50
2019-06-23T07:01:04.671Z,23.70
2019-06-23T07:03:52.874Z,23.70
2019-06-23T07:06:22.015Z,23.70
2019-06-23T07:08:52.676Z,23.60
2019-06-23T07:11:21.821Z,23.60
2019-06-23T07:13:51.011Z,23.60
2019-06-23T07:16:20.186Z,23.60
2019-06-23T07:18:49.334Z,23.60
2019-06-23T07:21:18.505Z,23.40
2019-06-23T07:23:47.709Z,23.30
2019-06-23T07:26:16.849Z,23.00
2019-06-23T07:28:46.031Z,22.80
2019-06-23T07:31:51.443Z,22.70
2019-06-23T07:34:20.597Z,22.70
2019-06-23T07:36:49.793Z,22.60
2019-06-23T07:39:18.942Z,22.50
2019-06-23T07:41:48.367Z,22.40
2019-06-23T07:44:17.664Z,22.70
2019-06-23T07:46:46.912Z,23.30
2019-06-23T07:49:16.032Z,23.80
2019-06-23T07:51:45.179Z,24.10
2019-06-23T07:54:14.594Z,24.40
2019-06-23T07:56:43.800Z,24.40
2019-06-23T07:59:12.965Z,24.70
2019-06-23T08:01:42.208Z,25.10
2019-06-23T08:04:11.350Z,25.30
2019-06-23T08:06:41.374Z,25.40
2019-06-23T08:09:10.540Z,25.40
2019-06-23T08:11:39.748Z,25.30
2019-06-23T08:14:08.940Z,25.20
2019-06-23T08:16:38.088Z,24.90
2019-06-23T08:19:07.240Z,24.60
2019-06-23T08:21:36.475Z,24.60
2019-06-23T08:24:05.668Z,24.80
2019-06-23T08:26:34.839Z,24.90
2019-06-23T08:29:05.052Z,25.30
2019-06-23T08:31:34.258Z,25.60
2019-06-23T08:34:03.485Z,25.80
2019-06-23T08:36:32.737Z,25.90
2019-06-23T08:39:01.982Z,25.90
2019-06-23T08:41:31.262Z,25.90
2019-06-23T08:44:00.387Z,25.60
2019-06-23T08:46:29.655Z,25.20
2019-06-23T08:48:58.817Z,24.90
2019-06-23T08:51:29.106Z,24.80
2019-06-23T08:53:58.336Z,24.50
2019-06-23T08:56:27.633Z,24.60
2019-06-23T08:58:56.735Z,24.60
2019-06-23T09:01:26.058Z,24.50
2019-06-23T09:03:55.309Z,24.50
2019-06-23T09:06:24.556Z,24.20
2019-06-23T09:08:53.814Z,24.20
2019-06-23T09:11:22.999Z,24.20
2019-06-23T09:13:52.134Z,24.20
2019-06-23T09:16:21.579Z,24.10
2019-06-23T09:18:50.721Z,24.40
2019-06-23T09:21:19.909Z,24.70
2019-06-23T09:23:49.143Z,24.90
2019-06-23T09:26:18.373Z,25.00
2019-06-23T09:28:47.613Z,25.00
2019-06-23T09:31:16.752Z,24.90
2019-06-23T09:33:47.016Z,24.70
2019-06-23T09:36:16.153Z,24.50
2019-06-23T09:38:48.272Z,24.50
2019-06-23T09:41:16.192Z,24.70
2019-06-23T09:43:45.384Z,24.90
2019-06-23T09:46:14.525Z,24.90
2019-06-23T09:48:43.768Z,24.80
2019-06-23T09:51:12.999Z,24.90
2019-06-23T09:53:42.147Z,24.80
2019-06-23T09:56:11.395Z,24.70
2019-06-23T09:58:40.556Z,24.60
2019-06-23T10:01:09.775Z,24.80
2019-06-23T10:03:39.154Z,24.90
2019-06-23T10:06:08.307Z,24.90
2019-06-23T10:08:37.550Z,24.90
2019-06-23T10:11:06.787Z,25.20
2019-06-23T10:13:35.895Z,25.40
2019-06-23T10:16:05.100Z,25.20
2019-06-23T10:18:34.291Z,25.10
2019-06-23T10:21:03.481Z,25.00
2019-06-23T10:23:32.647Z,24.90
2019-06-23T10:26:01.939Z,24.80
2019-06-23T10:28:31.097Z,24.70
2019-06-23T10:31:00.239Z,24.60
2019-06-23T10:33:29.401Z,24.50
2019-06-23T10:35:58.629Z,24.30
2019-06-23T10:38:27.832Z,24.40
2019-06-23T10:40:57.099Z,24.30
2019-06-23T10:43:26.264Z,24.40
2019-06-23T10:45:55.508Z,24.60
2019-06-23T10:48:24.757Z,24.70
2019-06-23T10:50:54.009Z,24.80
2019-06-23T10:53:23.143Z,24.90
2019-06-23T10:55:52.330Z,24.90
2019-06-23T10:58:21.551Z,24.90
2019-06-23T11:00:50.789Z,24.80
2019-06-23T11:03:22.855Z,24.60
2019-06-23T11:05:53.125Z,24.60
2019-06-23T11:08:22.245Z,24.60
2019-06-23T11:10:51.538Z,24.50
2019-06-23T11:13:20.692Z,24.50
2019-06-23T11:15:49.928Z,24.40
2019-06-23T11:18:19.323Z,24.20
2019-06-23T11:20:48.492Z,24.20
2019-06-23T11:23:17.796Z,24.20
2019-06-23T11:25:47.118Z,24.30
2019-06-23T11:28:16.346Z,24.40
2019-06-23T11:30:45.730Z,24.50
2019-06-23T11:33:14.879Z,24.60
2019-06-23T11:35:44.196Z,24.60
2019-06-23T11:38:13.344Z,24.70
2019-06-23T11:40:42.641Z,24.80
2019-06-23T11:43:11.874Z,24.80
2019-06-23T11:45:41.090Z,24.80
2019-06-23T11:48:10.327Z,24.90
2019-06-23T11:50:39.497Z,25.10
2019-06-23T11:53:08.666Z,25.10
2019-06-23T11:55:37.892Z,25.30
2019-06-23T11:58:07.117Z,25.30
2019-06-23T12:00:36.287Z,25.40
2019-06-23T12:03:05.729Z,25.30
2019-06-23T12:05:34.884Z,25.20
2019-06-23T12:08:04.072Z,25.30
2019-06-23T12:10:33.286Z,25.40
2019-06-23T12:13:02.465Z,25.70
2019-06-23T12:15:31.779Z,25.80
2019-06-23T12:18:00.946Z,25.90
2019-06-23T12:20:30.203Z,26.20
2019-06-23T12:22:59.499Z,26.50
2019-06-23T12:25:28.700Z,26.50
2019-06-23T12:27:57.883Z,26.70
2019-06-23T12:30:27.111Z,26.80
2019-06-23T12:32:56.273Z,26.70
2019-06-23T12:35:27.626Z,26.80
2019-06-23T12:37:56.484Z,26.70
2019-06-23T12:40:25.808Z,26.70
2019-06-23T12:42:55.106Z,27.00
2019-06-23T12:45:24.329Z,27.20
2019-06-23T12:47:53.506Z,27.00
2019-06-23T12:50:22.641Z,26.90
2019-06-23T12:52:53.604Z,26.70
2019-06-23T12:55:22.848Z,26.80
2019-06-23T12:57:52.115Z,26.70
2019-06-23T13:00:21.393Z,26.60
2019-06-23T13:02:50.682Z,26.60
2019-06-23T13:05:20.087Z,26.70
2019-06-23T13:07:49.342Z,26.70
2019-06-23T13:10:18.547Z,26.70
2019-06-23T13:12:47.735Z,26.70
2019-06-23T13:15:17.090Z,26.80
2019-06-23T13:17:46.382Z,26.90
2019-06-23T13:20:15.867Z,27.00
2019-06-23T13:22:45.033Z,27.20
2019-06-23T13:25:14.331Z,27.20
2019-06-23T13:27:43.688Z,27.20
2019-06-23T13:30:14.697Z,27.20
2019-06-23T13:32:43.849Z,27.20
2019-06-23T13:35:13.024Z,27.20
2019-06-23T13:37:42.168Z,27.20
2019-06-23T13:40:11.665Z,27.10
2019-06-23T13:42:40.919Z,27.20
2019-06-23T13:45:10.553Z,27.10
2019-06-23T13:47:39.696Z,27.10
2019-06-23T13:50:09.156Z,27.20
2019-06-23T13:52:38.295Z,27.30
2019-06-23T13:55:07.784Z,27.30
2019-06-23T13:57:36.940Z,27.40
2019-06-23T14:00:07.327Z,27.40
2019-06-23T14:02:36.481Z,27.50
2019-06-23T14:05:07.580Z,27.50
2019-06-23T14:07:36.709Z,27.60
2019-06-23T14:10:06.929Z,27.70
2019-06-23T14:12:36.196Z,27.40
2019-06-23T14:15:07.854Z,27.20
2019-06-23T14:17:37.119Z,27.10
2019-06-23T14:20:07.159Z,27.10
2019-06-23T14:22:36.332Z,27.20
2019-06-23T14:25:06.656Z,27.20
2019-06-23T14:27:35.855Z,27.20
2019-06-23T14:30:06.241Z,27.20
2019-06-23T14:32:35.456Z,27.20
2019-06-23T14:35:05.050Z,27.20
2019-06-23T14:37:34.305Z,27.30
2019-06-23T14:40:03.505Z,27.40
2019-06-23T14:42:32.675Z,27.40
2019-06-23T14:45:01.857Z,27.40
2019-06-23T14:47:31.209Z,27.30
2019-06-23T14:50:00.353Z,27.30
2019-06-23T14:52:29.500Z,27.30
2019-06-23T14:54:58.652Z,27.30
2019-06-23T14:57:27.824Z,27.30
2019-06-23T14:59:56.989Z,27.30
2019-06-23T15:02:26.181Z,27.20
2019-06-23T15:04:55.493Z,27.20
2019-06-23T15:07:24.693Z,27.30
2019-06-23T15:09:53.982Z,27.40
2019-06-23T15:12:25.065Z,27.40
2019-06-23T15:14:53.912Z,27.30
2019-06-23T15:17:23.037Z,27.40
2019-06-23T15:19:52.227Z,27.40
2019-06-23T15:22:21.436Z,27.20
2019-06-23T15:24:50.715Z,27.30
2019-06-23T15:27:19.904Z,27.30
2019-06-23T15:29:49.053Z,27.30
2019-06-23T15:32:18.281Z,27.20
2019-06-23T15:34:47.558Z,27.00
2019-06-23T15:37:16.883Z,26.80
2019-06-23T15:39:46.188Z,26.90
2019-06-23T15:42:15.461Z,26.90
2019-06-23T15:44:44.642Z,26.90
2019-06-23T15:47:13.841Z,27.00
2019-06-23T15:49:43.041Z,26.90
2019-06-23T15:52:12.226Z,26.90
2019-06-23T15:54:41.382Z,26.80
2019-06-23T15:57:10.774Z,26.80
2019-06-23T15:59:39.936Z,26.70
2019-06-23T16:02:09.261Z,26.80
2019-06-23T16:04:38.408Z,26.90
2019-06-23T16:07:07.843Z,26.90
2019-06-23T16:09:37.791Z,26.90
2019-06-23T16:12:16.656Z,26.80
2019-06-23T16:14:37.832Z,26.70
2019-06-23T16:17:07.087Z,26.70
2019-06-23T16:19:36.293Z,26.70
2019-06-23T16:22:05.537Z,26.70
2019-06-23T16:24:37.020Z,26.80
2019-06-23T16:27:05.739Z,26.80
2019-06-23T16:29:34.902Z,26.70
2019-06-23T16:32:04.284Z,26.80
2019-06-23T16:34:33.506Z,26.80
2019-06-23T16:37:02.780Z,26.80
2019-06-23T16:39:32.106Z,26.80
2019-06-23T16:42:01.292Z,26.80
2019-06-23T16:44:30.504Z,26.70
2019-06-23T16:46:59.753Z,26.80
2019-06-23T16:49:28.946Z,26.80
2019-06-23T16:51:58.117Z,26.70
2019-06-23T16:54:27.262Z,26.60
2019-06-23T16:56:56.384Z,26.60
2019-06-23T16:59:25.612Z,26.60
2019-06-23T17:01:54.775Z,26.50
2019-06-23T17:04:23.942Z,26.40
2019-06-23T17:06:53.093Z,26.30
2019-06-23T17:09:22.240Z,26.30
2019-06-23T17:11:51.535Z,26.20
2019-06-23T17:14:21.914Z,26.30
2019-06-23T17:16:51.136Z,26.30
2019-06-23T17:19:20.304Z,26.30
2019-06-23T17:21:49.526Z,26.30
2019-06-23T17:24:19.476Z,26.30
2019-06-23T17:26:48.671Z,26.40
2019-06-23T17:29:17.997Z,26.40
2019-06-23T17:31:47.198Z,26.30
2019-06-23T17:34:16.444Z,26.20
2019-06-23T17:36:45.709Z,26.20
2019-06-23T17:39:15.076Z,26.10
2019-06-23T17:41:44.402Z,26.10
2019-06-23T17:44:13.730Z,26.10
2019-06-23T17:46:42.883Z,26.10
2019-06-23T17:49:12.240Z,26.10
2019-06-23T17:51:41.647Z,26.10
2019-06-23T17:54:10.896Z,26.10
2019-06-23T17:56:40.126Z,26.00
2019-06-23T17:59:09.300Z,25.90
2019-06-23T18:01:38.554Z,25.80
2019-06-23T18:04:07.789Z,25.80
2019-06-23T18:06:36.972Z,25.80
2019-06-23T18:09:07.571Z,25.70
2019-06-23T18:11:36.949Z,25.60
2019-06-23T18:14:06.262Z,25.60
2019-06-23T18:16:36.278Z,25.50
2019-06-23T18:19:05.633Z,25.60
2019-06-23T18:21:34.924Z,25.50
2019-06-23T18:24:04.190Z,25.60
2019-06-23T18:26:33.464Z,25.50
2019-06-23T18:29:02.755Z,25.50
2019-06-23T18:31:31.903Z,25.50
2019-06-23T18:34:01.125Z,25.30
2019-06-23T18:36:31.319Z,25.40
2019-06-23T18:39:00.619Z,25.30
2019-06-23T18:41:29.808Z,25.20
2019-06-23T18:43:58.962Z,25.00
2019-06-23T18:46:28.139Z,24.90
2019-06-23T18:48:57.342Z,24.90
2019-06-23T18:51:26.583Z,24.90
2019-06-23T18:53:55.874Z,24.90
2019-06-23T18:56:25.105Z,24.90
2019-06-23T18:58:54.384Z,24.90
2019-06-23T19:01:23.628Z,24.80
2019-06-23T19:03:52.950Z,24.60
2019-06-23T19:06:22.206Z,24.70
2019-06-23T19:08:51.556Z,24.70
2019-06-23T19:11:20.746Z,24.60
2019-06-23T19:13:53.823Z,24.60
2019-06-23T19:16:20.961Z,24.60
2019-06-23T19:18:50.132Z,24.50
2019-06-23T19:21:20.850Z,24.30
2019-06-23T19:23:50.093Z,24.20
2019-06-23T19:26:20.781Z,24.10
2019-06-23T19:28:50.002Z,24.10
2019-06-23T19:31:19.166Z,24.00
2019-06-23T19:33:48.392Z,24.10
2019-06-23T19:36:17.633Z,24.10
2019-06-23T19:38:46.836Z,24.10
2019-06-23T19:41:16.120Z,24.10
2019-06-23T19:43:45.382Z,24.00
2019-06-23T19:46:14.606Z,23.90
2019-06-23T19:48:43.938Z,23.90
2019-06-23T19:51:13.251Z,23.80
2019-06-23T19:53:51.623Z,23.60
2019-06-23T19:56:14.944Z,23.50
2019-06-23T19:58:45.254Z,23.50
2019-06-23T20:01:14.559Z,23.40
2019-06-23T20:03:43.844Z,23.30
2019-06-23T20:06:13.301Z,23.20
2019-06-23T20:08:42.608Z,23.20
2019-06-23T20:11:11.882Z,23.10
2019-06-23T20:13:41.137Z,23.00
2019-06-23T20:16:10.333Z,23.00
2019-06-23T20:18:39.613Z,23.00
2019-06-23T20:21:08.855Z,22.90
2019-06-23T20:23:38.033Z,22.90
2019-06-23T20:26:07.220Z,22.80
2019-06-23T20:28:36.401Z,22.80
2019-06-23T20:31:06.002Z,22.80
2019-06-23T20:33:35.271Z,22.70
2019-06-23T20:36:04.569Z,22.70
2019-06-23T20:38:33.825Z,22.60
2019-06-23T20:41:03.056Z,22.60
2019-06-23T20:43:32.346Z,22.50
2019-06-23T20:46:01.494Z,22.50
2019-06-23T20:48:30.662Z,22.50
2019-06-23T20:50:59.858Z,22.40
2019-06-23T20:53:29.254Z,22.40
2019-06-23T20:55:58.494Z,22.40
2019-06-23T20:58:27.690Z,22.30
2019-06-23T21:00:56.985Z,22.30
2019-06-23T21:03:26.196Z,22.20
2019-06-23T21:05:55.485Z,22.20
2019-06-23T21:08:24.710Z,22.20
2019-06-23T21:10:53.885Z,22.10
2019-06-23T21:13:23.153Z,22.10
2019-06-23T21:15:52.397Z,22.10
2019-06-23T21:18:23.465Z,22.00
2019-06-23T21:20:52.656Z,22.00
2019-06-23T21:23:21.958Z,22.00
2019-06-23T21:25:51.296Z,22.00
2019-06-23T21:28:20.528Z,22.00
2019-06-23T21:30:49.860Z,22.00
2019-06-23T21:33:19.114Z,21.90
2019-06-23T21:35:48.540Z,21.90
2019-06-23T21:38:17.722Z,21.80
2019-06-23T21:40:46.938Z,21.80
2019-06-23T21:43:16.122Z,21.80
2019-06-23T21:45:45.349Z,21.80
2019-06-23T21:48:14.534Z,21.70
2019-06-23T21:50:43.676Z,21.70
2019-06-23T21:53:12.837Z,21.60
2019-06-23T21:55:42.101Z,21.50
2019-06-23T21:58:11.335Z,21.50
2019-06-23T22:00:45.943Z,21.50
2019-06-23T22:03:15.253Z,21.50
2019-06-23T22:05:44.530Z,21.50
2019-06-23T22:08:13.930Z,21.50
2019-06-23T22:10:46.013Z,21.30
2019-06-23T22:13:15.185Z,21.40
2019-06-23T22:15:44.353Z,21.30
2019-06-23T22:18:13.666Z,21.30
2019-06-23T22:20:42.886Z,21.30
2019-06-23T22:23:12.098Z,21.30
2019-06-23T22:25:41.254Z,21.30
2019-06-23T22:28:10.471Z,21.30
2019-06-23T22:30:39.710Z,21.20
2019-06-23T22:33:08.883Z,21.30
2019-06-23T22:35:38.061Z,21.30
2019-06-23T22:38:07.325Z,21.20
2019-06-23T22:40:36.577Z,21.20
2019-06-23T22:43:05.830Z,21.10
2019-06-23T22:45:47.271Z,21.00
2019-06-23T22:48:06.746Z,21.00
2019-06-23T22:50:35.945Z,21.00
2019-06-23T22:53:05.194Z,21.00
2019-06-23T22:55:34.478Z,21.00
2019-06-23T22:58:03.645Z,21.10
2019-06-23T23:00:32.885Z,21.00
2019-06-23T23:03:02.045Z,21.00
2019-06-23T23:05:31.300Z,21.00
2019-06-23T23:08:01.100Z,21.00
2019-06-23T23:10:30.248Z,21.00
2019-06-23T23:12:59.401Z,20.90
2019-06-23T23:15:28.628Z,20.90
2019-06-23T23:17:57.784Z,20.90
2019-06-23T23:20:26.960Z,20.80
2019-06-23T23:22:56.108Z,20.80
2019-06-23T23:25:25.336Z,20.80
2019-06-23T23:27:54.588Z,20.70
2019-06-23T23:30:23.739Z,20.70
2019-06-23T23:32:53.065Z,20.70
2019-06-23T23:35:22.280Z,20.70
2019-06-23T23:37:51.442Z,20.70
2019-06-23T23:40:39.647Z,20.50
2019-06-23T23:43:08.817Z,20.50
2019-06-23T23:45:37.984Z,20.50
2019-06-23T23:48:07.145Z,20.40
2019-06-23T23:50:36.379Z,20.40
2019-06-23T23:53:05.523Z,20.40
2019-06-23T23:55:34.691Z,20.30
2019-06-23T23:58:05.241Z,20.40
